createdAt,value
2023-02-02T00:01:09.186Z,1.84
2023-02-02T00:11:11.920Z,1.78
2023-02-02T00:21:14.387Z,1.78
2023-02-02T00:31:17.003Z,2.02
2023-02-02T00:41:20.309Z,2.15
2023-02-02T00:51:22.788Z,2.53
2023-02-02T01:01:25.377Z,2.79
2023-02-02T01:11:27.912Z,2.74
2023-02-02T01:21:30.971Z,2.64
2023-02-02T01:31:33.417Z,2.41
2023-02-02T01:41:37.108Z,2.11
2023-02-02T01:52:05.979Z,1.70
2023-02-02T02:02:08.805Z,1.78
2023-02-02T02:12:16.152Z,1.81
2023-02-02T02:22:39.946Z,1.42
2023-02-02T02:33:02.964Z,1.19
2023-02-02T02:43:20.103Z,1.00
2023-02-02T02:53:24.625Z,1.10
2023-02-02T03:03:37.959Z,1.09
2023-02-02T03:13:41.751Z,0.64
2023-02-02T03:23:44.231Z,0.62
2023-02-02T03:33:46.918Z,0.77
2023-02-02T03:43:49.375Z,0.85
2023-02-02T03:53:51.890Z,0.91
2023-02-02T04:03:55.015Z,1.01
2023-02-02T04:13:57.535Z,1.32
2023-02-02T04:24:00.829Z,1.49
2023-02-02T04:34:03.410Z,1.86
2023-02-02T04:44:06.875Z,1.78
2023-02-02T04:54:09.734Z,1.77
2023-02-02T05:04:12.500Z,1.75
2023-02-02T05:14:18.460Z,1.73
2023-02-02T05:24:20.969Z,1.64
2023-02-02T05:34:23.751Z,1.69
2023-02-02T05:44:26.235Z,1.46
2023-02-02T05:54:28.699Z,1.37
2023-02-02T06:04:31.340Z,1.30
2023-02-02T06:14:34.096Z,1.36
2023-02-02T06:24:36.750Z,1.55
2023-02-02T06:34:39.317Z,1.87
2023-02-02T06:44:41.864Z,1.82
2023-02-02T06:54:44.390Z,1.77
2023-02-02T07:04:46.999Z,2.47
2023-02-02T07:14:49.576Z,2.37
2023-02-02T07:24:52.050Z,2.44
2023-02-02T07:34:54.706Z,2.49
2023-02-02T07:45:25.609Z,2.53
2023-02-02T07:55:24.518Z,2.82
2023-02-02T08:05:28.087Z,3.09
2023-02-02T08:15:30.808Z,3.45
2023-02-02T08:25:33.492Z,3.62
2023-02-02T08:35:54.776Z,3.88
2023-02-02T08:46:01.423Z,4.80
2023-02-02T08:56:20.923Z,5.51
2023-02-02T09:06:30.502Z,5.14
2023-02-02T09:16:34.958Z,4.96
2023-02-02T09:26:38.789Z,5.03
2023-02-02T09:36:49.478Z,4.75
2023-02-02T09:47:15.578Z,4.80
2023-02-02T09:57:23.889Z,4.68
2023-02-02T10:07:50.148Z,4.92
2023-02-02T10:17:56.888Z,4.95
2023-02-02T10:28:11.540Z,6.23
2023-02-02T10:38:44.219Z,6.50
2023-02-02T10:48:48.213Z,5.75
2023-02-02T10:58:55.686Z,5.63
2023-02-02T11:09:00.475Z,5.49
2023-02-02T11:19:23.578Z,5.28
2023-02-02T11:29:54.821Z,5.38
2023-02-02T11:40:29.929Z,5.28
2023-02-02T11:50:32.631Z,5.15
2023-02-02T12:00:46.439Z,5.15
2023-02-02T12:11:02.302Z,5.23
2023-02-02T12:21:07.463Z,5.17
2023-02-02T12:31:29.466Z,5.21
2023-02-02T12:41:47.018Z,5.19
2023-02-02T12:51:59.081Z,5.21
2023-02-02T13:02:19.009Z,5.22
2023-02-02T13:12:24.871Z,5.15
2023-02-02T13:22:33.862Z,5.16
2023-02-02T13:32:40.224Z,5.07
2023-02-02T13:43:27.174Z,5.04
2023-02-02T13:53:36.223Z,4.95
2023-02-02T14:03:50.510Z,4.82
2023-02-02T14:14:17.188Z,4.73
2023-02-02T14:24:22.714Z,4.64
2023-02-02T14:34:44.040Z,4.54
2023-02-02T14:45:10.280Z,4.45
2023-02-02T14:55:22.390Z,4.30
2023-02-02T15:05:38.903Z,3.90
2023-02-02T15:15:43.753Z,3.74
2023-02-02T15:26:04.912Z,3.43
2023-02-02T15:36:14.222Z,3.36
2023-02-02T15:46:24.429Z,3.25
2023-02-02T15:56:30.382Z,3.18
2023-02-02T16:06:34.824Z,3.12
2023-02-02T16:16:40.132Z,3.23
2023-02-02T16:26:43.405Z,3.16
2023-02-02T16:37:08.296Z,3.22
2023-02-02T16:47:32.891Z,3.03
2023-02-02T16:57:36.556Z,3.11
2023-02-02T17:07:46.255Z,3.02
2023-02-02T17:17:49.458Z,2.92
2023-02-02T17:27:53.522Z,2.81
2023-02-02T17:37:57.733Z,2.62
2023-02-02T17:48:01.541Z,2.44
2023-02-02T17:58:04.249Z,2.52
2023-02-02T18:08:07.134Z,2.57
2023-02-02T18:18:12.499Z,2.57
2023-02-02T18:28:17.960Z,2.60
2023-02-02T18:38:21.380Z,2.43
2023-02-02T18:48:24.139Z,2.05
2023-02-02T18:58:27.663Z,1.71
2023-02-02T19:08:31.968Z,1.67
2023-02-02T19:18:35.605Z,1.44
2023-02-02T19:28:39.321Z,1.33
2023-02-02T19:38:42.455Z,1.11
2023-02-02T19:48:45.762Z,0.92
2023-02-02T19:58:49.101Z,0.83
2023-02-02T20:08:52.899Z,0.72
2023-02-02T20:18:57.168Z,0.52
2023-02-02T20:29:03.751Z,0.30
2023-02-02T20:39:22.082Z,0.15
2023-02-02T20:49:26.787Z,0.17
2023-02-02T20:59:29.618Z,0.32
2023-02-02T21:09:32.333Z,0.08
2023-02-02T21:19:35.400Z,-0.30
2023-02-02T21:29:38.575Z,-0.42
2023-02-02T21:39:48.593Z,-0.50
2023-02-02T21:49:52.512Z,-0.58
2023-02-02T21:59:56.989Z,-0.40
2023-02-02T22:09:59.478Z,0.37
2023-02-02T22:20:13.001Z,0.49
2023-02-02T22:30:30.646Z,0.98
2023-02-02T22:40:33.293Z,0.56
2023-02-02T22:50:35.924Z,0.12
2023-02-02T23:00:38.369Z,0.13
2023-02-02T23:10:40.933Z,0.26
2023-02-02T23:20:44.816Z,0.29
2023-02-02T23:30:47.398Z,-0.03
2023-02-02T23:40:50.031Z,-0.07
2023-02-02T23:50:53.326Z,0.04
